Time;durP1;ratioP1;P1;durP2;ratioP2;P2;SDS_P1;SDS_P2;PMS_P1;PMS_P2;Temp;Humidity;BMP_temperature;BMP_pressure;BME280_temperature;BME280_humidity;BME280_pressure;Samples;Min_cycle;Max_cycle;Signal;HPM_P1;HPM_P2
2023/05/10 00:00:47;;;;;;;8.75;2.25;;;;;;;12.83;100.00;95664.66;5090345;28;20032;-73
2023/05/10 00:03:13;;;;;;;6.15;2.05;;;;;;;12.83;100.00;95661.91;5089220;28;20078;-73
2023/05/10 00:05:40;;;;;;;5.40;1.83;;;;;;;12.96;100.00;95663.47;5090412;28;20044;-73
2023/05/10 00:08:08;;;;;;;6.50;2.15;;;;;;;12.96;100.00;95658.00;5090092;28;20072;-72
2023/05/10 00:10:34;;;;;;;4.50;2.08;;;;;;;13.01;100.00;95660.47;5090470;28;20051;-72
2023/05/10 00:13:01;;;;;;;6.15;2.08;;;;;;;12.86;100.00;95663.97;5090571;28;20051;-72
2023/05/10 00:15:27;;;;;;;6.68;2.78;;;;;;;12.75;100.00;95664.47;5089742;28;20520;-72
2023/05/10 00:17:53;;;;;;;7.68;2.60;;;;;;;12.59;100.00;95662.84;5090270;28;20043;-74
2023/05/10 00:20:20;;;;;;;7.07;2.72;;;;;;;12.53;100.00;95663.09;5089954;28;20051;-72
2023/05/10 00:22:46;;;;;;;7.03;2.75;;;;;;;12.54;100.00;95659.22;5090547;28;20043;-72
2023/05/10 00:25:14;;;;;;;7.10;3.10;;;;;;;12.50;100.00;95657.50;5089841;28;20070;-71
2023/05/10 00:27:41;;;;;;;6.28;2.80;;;;;;;12.48;100.00;95648.88;5090697;28;20515;-72
2023/05/10 00:30:08;;;;;;;8.63;3.38;;;;;;;12.53;100.00;95649.44;5090230;28;20052;-72
2023/05/10 00:32:35;;;;;;;3.92;2.65;;;;;;;12.42;100.00;95645.56;5090533;28;20070;-72
2023/05/10 00:35:02;;;;;;;6.88;2.55;;;;;;;12.40;100.00;95652.53;5090768;28;20052;-72
2023/05/10 00:37:28;;;;;;;5.22;2.95;;;;;;;12.33;100.00;95652.34;5090615;28;20075;-71
2023/05/10 00:39:54;;;;;;;5.70;3.35;;;;;;;12.28;100.00;95651.44;5090658;28;20547;-72
2023/05/10 00:42:23;;;;;;;6.80;3.58;;;;;;;12.38;100.00;95650.16;5090335;28;20044;-72
2023/05/10 00:44:49;;;;;;;5.28;3.00;;;;;;;12.47;100.00;95648.06;5090844;28;20494;-72
2023/05/10 00:47:16;;;;;;;4.78;2.90;;;;;;;12.32;100.00;95645.28;5089613;28;20487;-72
2023/05/10 00:49:43;;;;;;;6.93;3.00;;;;;;;12.37;100.00;95645.03;5095661;28;20044;-73
2023/05/10 00:52:10;;;;;;;4.88;3.00;;;;;;;12.39;100.00;95640.81;5096135;28;20051;-73
2023/05/10 00:54:37;;;;;;;5.32;2.72;;;;;;;12.35;100.00;95644.59;5097456;28;20056;-73
2023/05/10 00:57:03;;;;;;;3.70;2.85;;;;;;;12.30;100.00;95642.09;5097013;28;20048;-74
2023/05/10 00:59:32;;;;;;;4.90;3.15;;;;;;;12.25;100.00;95638.47;5097594;28;20044;-74
2023/05/10 01:01:58;;;;;;;4.75;2.95;;;;;;;12.35;100.00;95636.41;5096982;28;20100;-73
2023/05/10 01:04:26;;;;;;;5.20;2.95;;;;;;;12.33;100.00;95635.97;5095480;28;20056;-73
2023/05/10 01:06:53;;;;;;;4.78;3.33;;;;;;;12.33;100.00;95635.97;5095681;28;20075;-73
2023/05/10 01:09:20;;;;;;;6.53;2.95;;;;;;;12.35;100.00;95639.13;5095125;28;20101;-74
2023/05/10 01:11:47;;;;;;;6.07;4.07;;;;;;;12.32;100.00;95631.63;5094504;28;20438;-73
2023/05/10 01:14:13;;;;;;;5.18;3.15;;;;;;;12.30;100.00;95629.25;5094110;28;20079;-74
2023/05/10 01:16:42;;;;;;;4.45;3.08;;;;;;;12.42;100.00;95631.13;5093320;28;20051;-74
2023/05/10 01:19:17;;;;;;;4.60;2.90;;;;;;;12.45;100.00;95633.19;5090721;28;20044;-74
2023/05/10 01:21:52;;;;;;;4.43;3.08;;;;;;;12.33;100.00;95630.50;5091010;28;20407;-73
2023/05/10 01:25:03;;;;;;;6.20;3.50;;;;;;;12.27;100.00;95638.94;5090382;28;20051;-74
2023/05/10 01:27:56;;;;;;;7.00;3.25;;;;;;;12.30;100.00;95633.91;5089832;28;20044;-73
2023/05/10 01:30:51;;;;;;;3.53;2.63;;;;;;;12.25;100.00;95634.94;5090090;28;20063;-73
2023/05/10 01:33:24;;;;;;;5.78;3.42;;;;;;;12.28;100.00;95629.59;5086901;28;20055;-75
2023/05/10 01:35:56;;;;;;;4.90;2.78;;;;;;;12.29;100.00;95635.84;5089847;28;20414;-73
2023/05/10 01:38:31;;;;;;;4.13;3.15;;;;;;;12.26;100.00;95637.31;5089823;28;20388;-74
2023/05/10 01:41:09;;;;;;;5.32;2.85;;;;;;;12.24;100.00;95628.69;5090136;28;20072;-74
2023/05/10 01:43:44;;;;;;;7.90;3.40;;;;;;;12.22;100.00;95631.00;5089437;28;20086;-74
2023/05/10 01:46:17;;;;;;;4.38;2.20;;;;;;;12.21;100.00;95632.09;5088967;28;20423;-74
2023/05/10 01:48:49;;;;;;;4.10;2.53;;;;;;;12.17;100.00;95631.22;5089885;28;20055;-73
2023/05/10 01:51:20;;;;;;;5.20;3.15;;;;;;;12.19;100.00;95633.59;5089440;28;20051;-73
2023/05/10 01:53:48;;;;;;;6.32;3.22;;;;;;;12.16;100.00;95632.38;5089752;28;20067;-75
2023/05/10 01:56:16;;;;;;;6.07;3.05;;;;;;;12.18;100.00;95634.75;5089298;28;20040;-76
2023/05/10 01:58:46;;;;;;;12.43;3.10;;;;;;;12.21;100.00;95634.84;5092995;28;20048;-76
2023/05/10 02:01:14;;;;;;;5.93;3.00;;;;;;;12.13;100.00;95637.72;5092461;28;20068;-73
2023/05/10 02:03:43;;;;;;;7.57;3.17;;;;;;;12.14;100.00;95639.31;5092840;28;20384;-73
2023/05/10 02:06:15;;;;;;;11.07;2.90;;;;;;;12.14;100.00;95640.09;5092702;28;20048;-75
2023/05/10 02:08:43;;;;;;;16.20;3.13;;;;;;;12.05;100.00;95639.44;5085506;28;20105;-73
2023/05/10 02:11:13;;;;;;;15.05;3.28;;;;;;;12.03;100.00;95639.00;5092261;28;20044;-74
2023/05/10 02:13:40;;;;;;;13.70;3.47;;;;;;;12.00;100.00;95642.41;5093035;28;20036;-73
2023/05/10 02:16:08;;;;;;;15.95;3.28;;;;;;;12.02;100.00;95642.88;5092716;28;20044;-73
2023/05/10 02:18:36;;;;;;;14.85;2.90;;;;;;;11.93;100.00;95642.19;5092779;28;20047;-74
2023/05/10 02:21:03;;;;;;;15.00;2.72;;;;;;;11.89;100.00;95638.56;5092479;28;20105;-74
2023/05/10 02:23:32;;;;;;;19.63;3.05;;;;;;;11.93;100.00;95640.25;5092291;28;20495;-73
2023/05/10 02:26:01;;;;;;;8.27;2.33;;;;;;;12.00;100.00;95643.19;5092501;28;20071;-74
2023/05/10 02:28:28;;;;;;;10.52;2.28;;;;;;;11.93;100.00;95645.72;5092059;28;20044;-74
2023/05/10 02:30:56;;;;;;;10.60;2.47;;;;;;;11.88;100.00;95634.25;5089585;28;20055;-74
2023/05/10 02:33:24;;;;;;;6.82;2.30;;;;;;;11.89;100.00;95639.34;5089332;28;20047;-74
2023/05/10 02:35:51;;;;;;;8.43;2.10;;;;;;;11.97;100.00;95635.72;5092110;28;20372;-74
2023/05/10 02:38:21;;;;;;;14.15;2.75;;;;;;;11.93;100.00;95639.47;5091416;28;20056;-73
2023/05/10 02:40:49;;;;;;;12.30;2.50;;;;;;;11.86;100.00;95636.53;5092160;28;20036;-73
2023/05/10 02:43:17;;;;;;;21.30;3.03;;;;;;;11.81;100.00;95636.72;5091512;28;20044;-74
2023/05/10 02:45:47;;;;;;;2.05;1.13;;;;;;;11.83;100.00;95639.94;5091890;28;20044;-74
2023/05/10 02:48:14;;;;;;;10.82;2.53;;;;;;;11.81;100.00;95637.53;5091467;28;20044;-74
2023/05/10 02:50:44;;;;;;;9.60;2.20;;;;;;;11.81;100.00;95637.53;5091753;28;20135;-74
2023/05/10 02:53:15;;;;;;;7.43;2.53;;;;;;;11.84;100.00;95642.31;5091352;28;20051;-74
2023/05/10 02:55:47;;;;;;;5.63;2.10;;;;;;;11.83;100.00;95640.72;5092078;28;20076;-74
2023/05/10 02:58:15;;;;;;;5.28;1.98;;;;;;;11.86;100.00;95639.25;5091743;28;20054;-75
2023/05/10 03:00:41;;;;;;;4.53;1.92;;;;;;;11.81;100.00;95634.00;5083844;28;20036;-75
2023/05/10 03:03:08;;;;;;;5.20;1.98;;;;;;;11.83;100.00;95639.94;5091014;28;20048;-75
2023/05/10 03:05:34;;;;;;;8.00;2.20;;;;;;;11.80;100.00;95637.84;5091338;28;20142;-75
2023/05/10 03:08:03;;;;;;;4.28;1.80;;;;;;;11.88;100.00;95642.44;5091705;28;20055;-75
2023/05/10 03:10:31;;;;;;;5.32;2.20;;;;;;;11.93;100.00;95644.94;5090513;28;20062;-75
2023/05/10 03:13:08;;;;;;;4.43;2.17;;;;;;;12.03;100.00;95644.44;5091478;28;20040;-74
2023/05/10 03:15:43;;;;;;;3.80;1.65;;;;;;;11.98;100.00;95641.97;5090872;28;20044;-74
2023/05/10 03:18:16;;;;;;;3.92;1.85;;;;;;;11.99;100.00;95651.72;5090720;28;20040;-75
2023/05/10 03:20:44;;;;;;;4.55;1.90;;;;;;;11.96;100.00;95645.03;5091111;28;20051;-75
2023/05/10 03:23:14;;;;;;;3.72;1.90;;;;;;;12.11;100.00;95646.25;5090726;28;20055;-74
2023/05/10 03:25:43;;;;;;;4.93;2.25;;;;;;;11.98;100.00;95652.88;5083268;28;20090;-74
2023/05/10 03:28:10;;;;;;;4.70;1.80;;;;;;;11.90;100.00;95656.50;5091401;28;20123;-74
2023/05/10 03:30:39;;;;;;;4.40;1.90;;;;;;;11.88;100.00;95653.34;5091657;28;20048;-73
2023/05/10 03:33:06;;;;;;;4.50;2.35;;;;;;;11.95;100.00;95659.81;5091070;28;20048;-74
2023/05/10 03:35:32;;;;;;;7.15;2.50;;;;;;;12.04;100.00;95656.94;5091242;28;20090;-74
2023/05/10 03:37:59;;;;;;;3.63;2.05;;;;;;;12.13;100.00;95649.44;5091246;28;20044;-73
2023/05/10 03:40:28;;;;;;;4.95;2.25;;;;;;;12.15;100.00;95660.78;5090582;28;20043;-74
2023/05/10 03:42:55;;;;;;;4.70;2.10;;;;;;;12.09;100.00;95659.44;5091406;28;20040;-74
2023/05/10 03:45:22;;;;;;;3.78;2.17;;;;;;;12.04;100.00;95661.63;5091389;28;20054;-74
2023/05/10 03:47:49;;;;;;;5.85;2.20;;;;;;;12.18;100.00;95662.84;5091711;28;20505;-74
2023/05/10 03:50:16;;;;;;;3.80;2.05;;;;;;;12.13;100.00;95659.56;5092754;28;20048;-74
2023/05/10 03:52:43;;;;;;;2.33;1.50;;;;;;;12.14;100.00;95661.94;5093744;28;20063;-74
2023/05/10 03:55:12;;;;;;;6.85;2.00;;;;;;;12.06;100.00;95662.88;5093446;28;20048;-75
2023/05/10 03:57:38;;;;;;;5.35;2.30;;;;;;;12.13;100.00;95662.28;5093887;28;20140;-73
2023/05/10 04:00:06;;;;;;;3.85;1.92;;;;;;;12.16;100.00;95670.59;5093234;28;20047;-75
2023/05/10 04:02:32;;;;;;;4.00;2.40;;;;;;;12.10;100.00;95674.66;5091693;28;20055;-74
2023/05/10 04:05:00;;;;;;;2.80;1.95;;;;;;;12.08;100.00;95668.78;5090327;28;20052;-74
2023/05/10 04:07:26;;;;;;;2.75;1.75;;;;;;;12.09;100.00;95669.56;5090221;28;20044;-75
2023/05/10 04:09:53;;;;;;;5.22;2.08;;;;;;;12.22;100.00;95674.66;5090397;28;20059;-74
2023/05/10 04:12:20;;;;;;;2.53;1.75;;;;;;;12.07;100.00;95675.38;5089654;28;20044;-74
2023/05/10 04:14:46;;;;;;;2.60;1.80;;;;;;;12.06;100.00;95673.78;5090366;28;20598;-73
2023/05/10 04:17:12;;;;;;;2.92;1.85;;;;;;;12.20;100.00;95679.66;5089827;28;20067;-74
2023/05/10 04:19:39;;;;;;;3.35;1.90;;;;;;;12.25;100.00;95679.41;5089856;28;20059;-74
2023/05/10 04:22:07;;;;;;;4.47;1.65;;;;;;;12.27;100.00;95682.63;5090161;28;20075;-74
2023/05/10 04:24:33;;;;;;;4.70;2.13;;;;;;;12.11;100.00;95684.47;5089199;28;20040;-74
2023/05/10 04:27:00;;;;;;;4.57;1.88;;;;;;;12.04;100.00;95678.00;5090169;28;20051;-73
2023/05/10 04:29:26;;;;;;;3.92;2.03;;;;;;;11.95;100.00;95680.84;5089924;28;20040;-76
2023/05/10 04:31:53;;;;;;;4.22;2.22;;;;;;;12.05;100.00;95680.38;5089921;28;20054;-74
2023/05/10 04:34:21;;;;;;;3.70;2.05;;;;;;;12.09;100.00;95684.00;5089003;28;20054;-73
2023/05/10 04:36:47;;;;;;;3.80;1.90;;;;;;;12.08;100.00;95679.69;5090044;28;20048;-75
2023/05/10 04:39:15;;;;;;;4.30;2.42;;;;;;;12.04;100.00;95684.25;5089152;28;20055;-74
2023/05/10 04:41:42;;;;;;;5.65;2.00;;;;;;;12.08;100.00;95687.88;5089870;28;20040;-74
2023/05/10 04:44:08;;;;;;;2.95;1.95;;;;;;;12.01;100.00;95679.47;5089464;28;20044;-75
2023/05/10 04:46:35;;;;;;;5.82;2.85;;;;;;;11.95;100.00;95689.00;5089707;28;20048;-74
2023/05/10 04:49:01;;;;;;;2.42;1.75;;;;;;;11.93;100.00;95685.84;5089380;28;20067;-75
2023/05/10 04:51:28;;;;;;;3.38;2.17;;;;;;;12.05;100.00;95682.31;5089630;28;20054;-74
2023/05/10 04:53:54;;;;;;;3.80;2.30;;;;;;;11.93;100.00;95686.63;5089585;28;20552;-74
2023/05/10 04:56:22;;;;;;;3.50;2.10;;;;;;;11.97;100.00;95684.81;5089206;28;20048;-74
2023/05/10 04:58:49;;;;;;;4.07;1.70;;;;;;;11.95;100.00;95689.00;5089876;28;20044;-74
2023/05/10 05:01:16;;;;;;;4.72;2.25;;;;;;;11.99;100.00;95692.66;5089178;28;20142;-74
2023/05/10 05:03:42;;;;;;;5.57;2.58;;;;;;;11.90;100.00;95691.97;5089259;28;20097;-75
2023/05/10 05:06:09;;;;;;;4.10;1.95;;;;;;;11.90;100.00;95694.69;5088776;28;20044;-75
2023/05/10 05:08:35;;;;;;;4.80;2.30;;;;;;;11.86;100.00;95693.81;5089862;28;20052;-74
2023/05/10 05:11:02;;;;;;;3.47;2.08;;;;;;;11.94;100.00;95704.59;5089424;28;20066;-75
2023/05/10 05:13:29;;;;;;;3.50;2.15;;;;;;;11.91;100.00;95699.06;5089227;28;20044;-74
2023/05/10 05:15:56;;;;;;;4.20;2.10;;;;;;;12.06;100.00;95703.00;5089548;28;20051;-74
2023/05/10 05:18:22;;;;;;;3.75;2.22;;;;;;;12.01;100.00;95702.09;5088992;28;20051;-75
2023/05/10 05:20:49;;;;;;;3.35;2.13;;;;;;;12.03;100.00;95704.47;5089312;28;20047;-75
2023/05/10 05:23:15;;;;;;;3.72;1.90;;;;;;;11.99;100.00;95706.31;5088453;28;20051;-74
2023/05/10 05:25:42;;;;;;;3.67;2.05;;;;;;;12.06;100.00;95712.00;5089373;28;20044;-75
2023/05/10 05:28:09;;;;;;;2.80;1.70;;;;;;;12.02;100.00;95716.53;5088926;28;20089;-74
2023/05/10 05:30:37;;;;;;;3.45;1.77;;;;;;;12.06;100.00;95713.91;5089428;28;20052;-74
2023/05/10 05:33:04;;;;;;;3.25;1.40;;;;;;;12.11;100.00;95717.22;5091460;28;20415;-75
2023/05/10 05:35:30;;;;;;;3.85;1.83;;;;;;;12.17;100.00;95720.50;5092862;28;20470;-76
2023/05/10 05:37:57;;;;;;;2.58;1.50;;;;;;;12.18;100.00;95722.88;5093553;28;20055;-75
2023/05/10 05:40:23;;;;;;;2.22;1.30;;;;;;;12.27;100.00;95720.84;5093366;28;20040;-75
2023/05/10 05:42:50;;;;;;;3.30;1.75;;;;;;;12.32;100.00;95727.19;5085053;28;20040;-76
2023/05/10 05:45:16;;;;;;;3.30;1.85;;;;;;;12.24;100.00;95732.44;5093181;28;20052;-75
2023/05/10 05:47:44;;;;;;;5.13;2.13;;;;;;;12.33;100.00;95739.72;5093223;28;20044;-74
2023/05/10 05:50:11;;;;;;;2.10;1.30;;;;;;;12.16;100.00;95738.81;5092321;28;20047;-77
2023/05/10 05:52:37;;;;;;;3.95;1.55;;;;;;;12.23;100.00;95746.44;5092747;28;20040;-75
2023/05/10 05:55:04;;;;;;;3.25;1.85;;;;;;;12.20;100.00;95750.63;5092574;28;20044;-75
2023/05/10 05:57:31;;;;;;;3.17;1.67;;;;;;;12.30;100.00;95748.56;5092949;28;20047;-75
2023/05/10 05:59:57;;;;;;;3.38;1.65;;;;;;;12.36;100.00;95755.38;5092984;28;20055;-74
2023/05/10 06:02:24;;;;;;;8.45;2.60;;;;;;;12.21;100.00;95756.88;5092208;28;20047;-76
2023/05/10 06:04:52;;;;;;;2.95;1.42;;;;;;;12.30;100.00;95757.56;5084216;28;20051;-75
2023/05/10 06:07:18;;;;;;;3.70;1.40;;;;;;;12.27;100.00;95763.72;5092409;28;20144;-76
2023/05/10 06:09:44;;;;;;;2.08;1.10;;;;;;;12.33;100.00;95765.06;5092816;28;20051;-75
2023/05/10 06:12:11;;;;;;;2.28;1.25;;;;;;;12.15;100.00;95769.16;5092545;28;20044;-75
2023/05/10 06:14:38;;;;;;;3.13;1.60;;;;;;;12.24;100.00;95776.09;5092705;28;20036;-75
2023/05/10 06:17:04;;;;;;;2.78;1.50;;;;;;;12.27;100.00;95769.97;5092253;28;20399;-75
2023/05/10 06:19:31;;;;;;;3.10;1.73;;;;;;;12.09;100.00;95774.06;5092024;28;20521;-75
2023/05/10 06:21:59;;;;;;;2.67;1.35;;;;;;;12.01;100.00;95783.19;5092656;28;20134;-75
2023/05/10 06:24:26;;;;;;;1.42;1.10;;;;;;;12.03;100.00;95780.88;5092291;28;20040;-73
2023/05/10 06:26:53;;;;;;;2.05;1.38;;;;;;;12.21;100.00;95793.16;5084863;28;20044;-74
2023/05/10 06:29:19;;;;;;;2.97;1.50;;;;;;;12.31;100.00;95788.38;5092162;28;20052;-74
2023/05/10 06:31:46;;;;;;;3.47;1.52;;;;;;;12.20;100.00;95797.03;5092432;28;20051;-74
2023/05/10 06:34:13;;;;;;;3.08;1.70;;;;;;;12.26;100.00;95801.13;5091854;28;20044;-74
2023/05/10 06:36:39;;;;;;;4.13;1.52;;;;;;;12.40;100.00;95802.72;5092562;28;20168;-74
2023/05/10 06:39:07;;;;;;;2.28;1.58;;;;;;;12.48;100.00;95807.28;5092493;28;20047;-74
2023/05/10 06:41:34;;;;;;;1.90;1.50;;;;;;;12.50;100.00;95807.72;5093193;28;20044;-74
2023/05/10 06:44:00;;;;;;;3.00;1.40;;;;;;;12.46;100.00;95809.53;5091550;28;20118;-75
2023/05/10 06:46:27;;;;;;;1.45;1.30;;;;;;;12.60;100.00;95809.97;5092235;28;20070;-75
2023/05/10 06:48:53;;;;;;;2.75;1.70;;;;;;;12.48;100.00;95818.97;5084546;28;20052;-75
2023/05/10 06:51:21;;;;;;;2.08;1.52;;;;;;;12.53;100.00;95817.97;5091575;28;20482;-74
2023/05/10 06:53:47;;;;;;;1.70;1.33;;;;;;;12.07;100.00;95820.00;5092068;28;20051;-75
2023/05/10 06:56:15;;;;;;;3.92;1.80;;;;;;;12.11;100.00;95831.84;5092032;28;20044;-75
2023/05/10 06:58:41;;;;;;;2.45;1.73;;;;;;;12.16;100.00;95820.72;5092753;28;20048;-74
2023/05/10 07:01:08;;;;;;;2.42;1.80;;;;;;;12.23;100.00;95826.38;5091817;28;20069;-75
2023/05/10 07:03:34;;;;;;;1.80;1.60;;;;;;;12.27;100.00;95821.03;5092396;28;20044;-73
2023/05/10 07:06:03;;;;;;;3.22;1.83;;;;;;;12.20;100.00;95823.53;5092495;28;20043;-73
2023/05/10 07:08:30;;;;;;;2.20;1.83;;;;;;;12.25;100.00;95821.38;5091760;28;20060;-74
2023/05/10 07:11:01;;;;;;;3.67;2.40;;;;;;;12.36;100.00;95820.91;5091793;28;20044;-74
2023/05/10 07:13:28;;;;;;;2.83;1.80;;;;;;;12.57;100.00;95821.56;5091185;28;20067;-74
2023/05/10 07:15:55;;;;;;;2.50;1.90;;;;;;;12.77;100.00;95820.63;5083239;28;20502;-74
2023/05/10 07:18:21;;;;;;;2.95;1.50;;;;;;;12.79;100.00;95823.03;5091018;28;20047;-73
2023/05/10 07:20:48;;;;;;;1.70;1.20;;;;;;;12.91;100.00;95833.13;5091090;28;20447;-73
2023/05/10 07:23:14;;;;;;;2.28;1.60;;;;;;;12.95;100.00;95834.03;5091245;28;20127;-75
2023/05/10 07:25:41;;;;;;;2.33;1.33;;;;;;;13.12;100.00;95833.75;5090978;28;20063;-74
2023/05/10 07:28:07;;;;;;;3.65;1.70;;;;;;;13.02;100.00;95839.72;5090508;28;20442;-74
2023/05/10 07:30:35;;;;;;;3.45;1.75;;;;;;;13.10;100.00;95849.69;5090917;28;20070;-73
2023/05/10 07:33:02;;;;;;;2.83;2.08;;;;;;;12.87;100.00;95840.44;5083138;28;20048;-74
2023/05/10 07:35:28;;;;;;;2.92;1.70;;;;;;;12.89;100.00;95843.59;5090823;28;20048;-73
2023/05/10 07:37:55;;;;;;;6.78;2.60;;;;;;;12.88;100.00;95847.47;5091090;28;20047;-74
2023/05/10 07:40:21;;;;;;;3.97;1.80;;;;;;;12.73;100.00;95840.78;5090223;28;20410;-72
2023/05/10 07:42:48;;;;;;;3.45;1.70;;;;;;;12.60;100.00;95848.22;5090942;28;20036;-75
2023/05/10 07:45:14;;;;;;;3.42;2.13;;;;;;;12.58;100.00;95845.03;5090273;28;20119;-73
2023/05/10 07:47:42;;;;;;;3.33;2.30;;;;;;;12.58;100.00;95857.88;5090563;28;20047;-73
2023/05/10 07:50:09;;;;;;;4.07;1.80;;;;;;;12.63;100.00;95847.50;5090363;28;20047;-74
2023/05/10 07:52:35;;;;;;;4.43;2.58;;;;;;;12.66;100.00;95852.28;5090053;28;20059;-73
2023/05/10 07:55:02;;;;;;;4.50;2.22;;;;;;;12.70;100.00;95852.41;5090038;28;20054;-74
2023/05/10 07:57:29;;;;;;;5.78;1.77;;;;;;;12.68;100.00;95857.41;5090821;28;20048;-73
2023/05/10 07:59:55;;;;;;;4.80;2.50;;;;;;;12.71;100.00;95854.78;5090214;28;20047;-73
2023/05/10 08:02:21;;;;;;;4.88;1.95;;;;;;;12.66;100.00;95865.16;5089745;28;20067;-73
2023/05/10 08:04:49;;;;;;;3.65;2.30;;;;;;;12.76;100.00;95862.75;5090271;28;20067;-73
2023/05/10 08:07:16;;;;;;;3.13;2.30;;;;;;;12.73;100.00;95860.69;5089974;28;20051;-73
2023/05/10 08:09:42;;;;;;;5.30;2.13;;;;;;;12.88;100.00;95859.19;5090305;28;20040;-74
2023/05/10 08:12:09;;;;;;;4.30;2.33;;;;;;;13.00;100.00;95863.88;5090116;28;20048;-74
2023/05/10 08:14:36;;;;;;;3.65;2.55;;;;;;;13.32;100.00;95862.09;5090188;28;20043;-74
2023/05/10 08:17:02;;;;;;;2.88;1.92;;;;;;;13.57;99.02;95866.31;5089813;28;20372;-75
2023/05/10 08:19:29;;;;;;;4.00;2.25;;;;;;;13.66;97.46;95863.41;5089448;28;20043;-74
2023/05/10 08:21:57;;;;;;;2.03;1.70;;;;;;;13.71;94.86;95863.16;5090056;28;20051;-73
2023/05/10 08:24:23;;;;;;;3.00;2.13;;;;;;;13.66;92.98;95859.88;5089415;28;20051;-73
2023/05/10 08:26:50;;;;;;;2.67;2.03;;;;;;;13.58;93.32;95861.66;5089950;28;20044;-73
2023/05/10 08:29:19;;;;;;;2.58;1.90;;;;;;;13.50;94.35;95870.78;5089401;28;20044;-73
2023/05/10 08:31:46;;;;;;;5.35;2.10;;;;;;;13.39;92.11;95866.97;5089868;28;20040;-73
2023/05/10 08:34:12;;;;;;;3.17;2.30;;;;;;;13.37;92.78;95863.78;5089164;28;20111;-73
2023/05/10 08:36:39;;;;;;;4.68;2.33;;;;;;;13.50;93.44;95865.31;5090021;28;20048;-73
2023/05/10 08:39:07;;;;;;;3.67;2.10;;;;;;;13.77;92.53;95872.69;5089517;28;20047;-75
2023/05/10 08:41:34;;;;;;;2.70;1.98;;;;;;;13.96;93.05;95868.50;5090083;28;20105;-73
2023/05/10 08:44:05;;;;;;;4.18;2.55;;;;;;;14.11;93.42;95867.72;5089622;28;20052;-73
2023/05/10 08:46:34;;;;;;;4.25;2.50;;;;;;;14.10;92.53;95868.88;5089924;28;20073;-73
2023/05/10 08:49:04;;;;;;;3.78;2.20;;;;;;;14.00;87.86;95872.13;5089820;28;20072;-74
2023/05/10 08:51:36;;;;;;;4.63;2.58;;;;;;;14.01;88.40;95868.25;5089253;28;20046;-73
2023/05/10 08:54:04;;;;;;;4.38;2.90;;;;;;;14.31;89.58;95863.94;5081026;28;20089;-74
2023/05/10 08:56:32;;;;;;;2.20;1.90;;;;;;;14.30;87.86;95867.84;5089823;28;20048;-73
2023/05/10 08:58:59;;;;;;;3.20;2.10;;;;;;;14.33;86.72;95864.38;5089548;28;20490;-73
2023/05/10 09:01:27;;;;;;;2.35;1.60;;;;;;;14.31;87.97;95863.16;5089239;28;20044;-73
2023/05/10 09:03:54;;;;;;;6.93;3.30;;;;;;;14.20;85.55;95867.53;5089376;28;20040;-73
2023/05/10 09:06:21;;;;;;;4.05;2.60;;;;;;;13.96;86.96;95863.81;5088957;28;20040;-73
2023/05/10 09:08:48;;;;;;;3.83;2.40;;;;;;;13.82;89.13;95866.97;5093693;28;20074;-73
2023/05/10 09:11:15;;;;;;;5.85;2.92;;;;;;;13.97;92.77;95867.34;5093196;28;20130;-75
2023/05/10 09:13:43;;;;;;;7.10;2.13;;;;;;;13.86;90.73;95866.28;5093481;28;20064;-73
2023/05/10 09:16:10;;;;;;;2.97;1.50;;;;;;;13.60;92.47;95873.03;5093252;28;20624;-73
2023/05/10 09:18:36;;;;;;;5.45;2.13;;;;;;;13.61;93.97;95871.88;5093538;28;20506;-73
2023/05/10 09:21:03;;;;;;;11.02;2.65;;;;;;;13.78;91.33;95873.50;5093256;28;20394;-74
2023/05/10 09:23:32;;;;;;;6.68;2.10;;;;;;;14.02;88.21;95867.09;5093123;28;20466;-73
2023/05/10 09:26:05;;;;;;;5.20;2.35;;;;;;;14.07;90.59;95875.84;5093400;28;20093;-73
2023/05/10 09:28:33;;;;;;;4.25;2.13;;;;;;;13.93;90.00;95880.16;5093407;28;20089;-73
2023/05/10 09:31:01;;;;;;;5.50;2.08;;;;;;;13.84;89.74;95886.59;5093192;28;20072;-73
2023/05/10 09:33:27;;;;;;;2.67;1.80;;;;;;;13.63;88.02;95875.06;5092674;28;20036;-73
2023/05/10 09:35:54;;;;;;;4.43;1.65;;;;;;;13.62;89.88;95881.66;5093038;28;20040;-74
2023/05/10 09:38:20;;;;;;;2.00;1.45;;;;;;;13.56;89.06;95883.84;5092774;28;20036;-73
2023/05/10 09:40:54;;;;;;;2.08;1.33;;;;;;;13.50;89.62;95884.47;5093151;28;20044;-73
2023/05/10 09:43:21;;;;;;;3.20;1.50;;;;;;;13.47;90.61;95885.97;5092655;28;20446;-73
2023/05/10 09:45:49;;;;;;;5.82;1.48;;;;;;;13.61;89.85;95880.09;5092746;28;20036;-73
2023/05/10 09:48:17;;;;;;;3.45;1.30;;;;;;;13.64;89.82;95878.59;5092633;28;20498;-73
2023/05/10 09:50:43;;;;;;;2.10;1.30;;;;;;;13.58;89.72;95875.31;5092907;28;20051;-73
2023/05/10 09:53:10;;;;;;;1.75;1.20;;;;;;;13.76;90.60;95871.13;5092414;28;20051;-72
2023/05/10 09:55:41;;;;;;;2.78;1.60;;;;;;;13.84;93.42;95867.44;5092916;28;20044;-73
2023/05/10 09:58:10;;;;;;;3.97;1.67;;;;;;;13.72;92.32;95872.97;5092411;28;20048;-74
2023/05/10 10:00:38;;;;;;;2.50;1.52;;;;;;;13.80;93.95;95872.00;5092917;28;20044;-73
2023/05/10 10:03:05;;;;;;;5.38;1.60;;;;;;;14.04;92.88;95870.28;5083344;28;20502;-73
2023/05/10 10:05:34;;;;;;;6.07;1.60;;;;;;;14.21;91.30;95859.00;5092709;28;20132;-72
2023/05/10 10:08:03;;;;;;;4.53;2.63;;;;;;;14.10;91.01;95866.94;5092634;28;20048;-72
2023/05/10 10:10:30;;;;;;;2.63;1.30;;;;;;;14.42;88.85;95869.69;5092386;28;20089;-74
2023/05/10 10:12:56;;;;;;;3.35;1.50;;;;;;;14.57;89.94;95870.84;5092352;28;20044;-73
2023/05/10 10:15:24;;;;;;;2.25;1.63;;;;;;;14.79;88.36;95872.94;5092357;28;20483;-73
2023/05/10 10:17:52;;;;;;;3.00;1.10;;;;;;;15.02;81.93;95869.50;5092158;28;20102;-73
2023/05/10 10:20:20;;;;;;;1.48;1.17;;;;;;;14.63;81.35;95874.13;5091898;28;20048;-73
2023/05/10 10:22:49;;;;;;;4.10;2.03;;;;;;;14.56;85.44;95872.81;5092473;28;20042;-74
2023/05/10 10:25:17;;;;;;;4.05;1.50;;;;;;;14.35;88.23;95880.44;5091910;28;20040;-74
2023/05/10 10:28:00;;;;;;;2.25;1.65;;;;;;;14.10;93.40;95880.63;5092458;28;20040;-75
2023/05/10 10:30:33;;;;;;;4.07;1.73;;;;;;;13.69;96.71;95884.63;5091733;28;20518;-73
2023/05/10 10:33:14;;;;;;;2.10;1.40;;;;;;;13.62;100.00;95878.94;5091407;28;20056;-73
2023/05/10 10:35:41;;;;;;;5.40;1.30;;;;;;;13.64;100.00;95887.59;5090375;28;20091;-73
2023/05/10 10:38:10;;;;;;;3.10;1.50;;;;;;;13.74;100.00;95878.88;5091938;28;20048;-74
2023/05/10 10:40:36;;;;;;;2.60;1.67;;;;;;;13.84;98.36;95878.38;5092165;28;20093;-74
2023/05/10 10:43:25;;;;;;;3.28;2.20;;;;;;;14.05;100.00;95871.88;5091247;28;20073;-73
2023/05/10 10:46:12;;;;;;;2.90;2.35;;;;;;;14.44;100.00;95874.78;5091890;28;20501;-73
2023/05/10 10:48:38;;;;;;;4.38;2.50;;;;;;;14.58;98.20;95866.97;5092074;28;20032;-75
2023/05/10 10:51:05;;;;;;;14.75;3.10;;;;;;;14.73;99.59;95866.16;5091659;28;20410;-73
2023/05/10 10:53:33;;;;;;;8.23;3.35;;;;;;;15.02;100.00;95855.81;5092033;28;20090;-73
2023/05/10 10:56:07;;;;;;;3.75;2.75;;;;;;;15.24;97.73;95859.78;5092209;28;20509;-72
2023/05/10 10:58:35;;;;;;;4.25;2.35;;;;;;;15.22;94.22;95860.16;5093000;28;20044;-73
2023/05/10 11:01:15;;;;;;;2.83;2.08;;;;;;;15.33;92.69;95852.94;5092466;28;20056;-75
2023/05/10 11:04:15;;;;;;;4.60;2.10;;;;;;;15.37;87.46;95862.06;5093510;28;20044;-73
2023/05/10 11:06:42;;;;;;;4.80;2.30;;;;;;;15.46;88.89;95858.31;5092353;28;20483;-72
2023/05/10 11:09:12;;;;;;;3.97;2.42;;;;;;;15.48;89.19;95858.72;5091115;28;20443;-73
2023/05/10 11:11:50;;;;;;;3.35;2.20;;;;;;;15.38;86.40;95849.13;5091207;28;20048;-74
2023/05/10 11:14:21;;;;;;;3.25;2.38;;;;;;;15.35;86.54;95850.66;5083855;28;20036;-73
2023/05/10 11:16:47;;;;;;;3.50;2.63;;;;;;;15.65;88.93;95855.56;5091322;28;20044;-72
2023/05/10 11:19:16;;;;;;;3.70;2.20;;;;;;;15.82;87.11;95857.09;5089813;28;20044;-73
2023/05/10 11:21:47;;;;;;;5.75;1.70;;;;;;;15.96;85.21;95864.78;5091261;28;20051;-72
2023/05/10 11:24:17;;;;;;;2.47;1.65;;;;;;;16.12;82.19;95857.22;5083222;28;20044;-73
2023/05/10 11:26:44;;;;;;;2.00;1.58;;;;;;;15.99;81.24;95856.59;5091152;28;20513;-72
2023/05/10 11:29:10;;;;;;;4.60;2.10;;;;;;;15.86;78.04;95864.19;5090475;28;20050;-72
2023/05/10 11:31:43;;;;;;;3.88;1.73;;;;;;;16.12;79.86;95862.72;5090698;28;20044;-73